Terminal Aerodrome Forecast
Issued by NWS

Home | Current Version | Previous Version | Text Only | Print | Product List | Glossary Off
Versions: 1 2 3 4 5 6 7 8 9 10 11 12 13 14 15 16 17 18

000
FTUS43 KFGF 182300
TAFBJI
TAF
KBJI 182322Z 1900/1924 VRB04KT P6SM SCT025
     FM190100 18009KT P6SM FEW025 BKN200
     FM192000 29011KT P6SM BKN200=

USA.gov is the U.S. government's official web portal to all federal, state and local government web resources and services.